createdAt,value
2023-05-05T00:00:54.378Z,4.13
2023-05-05T00:03:23.778Z,4.20
2023-05-05T00:05:52.793Z,4.40
2023-05-05T00:08:21.789Z,4.38
2023-05-05T00:10:50.605Z,4.38
2023-05-05T00:13:17.303Z,4.18
2023-05-05T00:15:44.048Z,4.30
2023-05-05T00:18:10.576Z,4.23
2023-05-05T00:20:37.655Z,4.27
2023-05-05T00:23:04.232Z,4.47
2023-05-05T00:25:33.491Z,4.20
2023-05-05T00:28:02.246Z,4.30
2023-05-05T00:30:28.901Z,4.47
2023-05-05T00:32:57.813Z,4.43
2023-05-05T00:35:24.274Z,4.03
2023-05-05T00:37:50.768Z,4.07
2023-05-05T00:40:19.598Z,4.10
2023-05-05T00:42:47.409Z,3.87
2023-05-05T00:45:16.820Z,4.22
2023-05-05T00:47:43.612Z,4.30
2023-05-05T00:50:12.700Z,3.90
2023-05-05T00:52:39.352Z,3.90
2023-05-05T00:55:06.043Z,3.97
2023-05-05T00:57:35.512Z,4.13
2023-05-05T01:00:02.510Z,4.03
2023-05-05T01:02:31.400Z,4.15
2023-05-05T01:05:03.744Z,3.75
2023-05-05T01:07:45.545Z,3.83
2023-05-05T01:10:20.843Z,3.90
2023-05-05T01:13:03.631Z,3.95
2023-05-05T01:15:46.687Z,4.18
2023-05-05T01:18:19.536Z,3.70
2023-05-05T01:20:49.931Z,3.92
2023-05-05T01:23:35.415Z,3.83
2023-05-05T01:26:21.482Z,4.22
2023-05-05T01:29:07.669Z,3.83
2023-05-05T01:31:38.674Z,3.90
2023-05-05T01:34:06.838Z,3.63
2023-05-05T01:36:37.449Z,4.03
2023-05-05T01:39:04.600Z,3.70
2023-05-05T01:41:32.629Z,3.57
2023-05-05T01:44:02.609Z,3.78
2023-05-05T01:46:29.055Z,3.57
2023-05-05T01:48:55.602Z,3.92
2023-05-05T01:51:24.892Z,3.72
2023-05-05T01:53:53.342Z,3.85
2023-05-05T01:56:20.570Z,3.42
2023-05-05T01:58:47.315Z,3.80
2023-05-05T02:01:16.107Z,3.72
2023-05-05T02:03:42.543Z,3.75
2023-05-05T02:06:09.048Z,3.50
2023-05-05T02:08:37.931Z,3.75
2023-05-05T02:11:04.359Z,3.60
2023-05-05T02:13:30.985Z,3.63
2023-05-05T02:15:57.469Z,3.65
2023-05-05T02:18:26.316Z,3.75
2023-05-05T02:20:53.210Z,3.87
2023-05-05T02:23:19.689Z,3.63
2023-05-05T02:25:48.153Z,3.70
2023-05-05T02:28:21.591Z,3.50
2023-05-05T02:30:50.363Z,3.57
2023-05-05T02:33:19.212Z,3.70
2023-05-05T02:35:45.737Z,3.63
2023-05-05T02:38:17.449Z,3.63
2023-05-05T02:40:44.482Z,3.50
2023-05-05T02:43:13.813Z,3.33
2023-05-05T02:45:40.325Z,3.73
2023-05-05T02:48:07.080Z,3.60
2023-05-05T02:50:33.590Z,3.50
2023-05-05T02:53:04.924Z,3.43
2023-05-05T02:55:38.396Z,3.70
2023-05-05T02:58:05.544Z,3.90
2023-05-05T03:00:43.589Z,3.45
2023-05-05T03:03:18.523Z,3.63
2023-05-05T03:05:47.546Z,3.60
2023-05-05T03:08:14.573Z,3.65
2023-05-05T03:10:46.300Z,3.60
2023-05-05T03:13:15.328Z,3.30
2023-05-05T03:15:48.475Z,3.70
2023-05-05T03:18:17.639Z,3.60
2023-05-05T03:20:44.120Z,3.37
2023-05-05T03:23:13.960Z,3.53
2023-05-05T03:25:47.598Z,3.60
2023-05-05T03:28:14.710Z,3.50
2023-05-05T03:30:41.308Z,3.22
2023-05-05T03:33:11.402Z,3.60
2023-05-05T03:35:38.092Z,3.40
2023-05-05T03:38:04.519Z,3.50
2023-05-05T03:40:42.942Z,3.40
2023-05-05T03:43:15.712Z,3.70
2023-05-05T03:45:42.333Z,3.60
2023-05-05T03:48:11.233Z,3.45
2023-05-05T03:50:37.730Z,3.40
2023-05-05T03:53:04.191Z,3.57
2023-05-05T03:55:33.839Z,3.67
2023-05-05T03:58:00.256Z,3.43
2023-05-05T04:00:27.584Z,3.60
2023-05-05T04:02:54.095Z,3.42
2023-05-05T04:05:22.626Z,3.58
2023-05-05T04:07:49.029Z,3.40
2023-05-05T04:10:15.462Z,3.40
2023-05-05T04:12:41.939Z,3.50
2023-05-05T04:15:08.989Z,3.42
2023-05-05T04:17:35.449Z,3.30
2023-05-05T04:20:04.731Z,3.50
2023-05-05T04:22:31.697Z,3.42
2023-05-05T04:24:58.155Z,3.33
2023-05-05T04:27:26.270Z,3.40
2023-05-05T04:29:52.745Z,3.38
2023-05-05T04:32:19.210Z,3.40
2023-05-05T04:34:47.974Z,3.45
2023-05-05T04:37:14.552Z,3.50
2023-05-05T04:39:41.669Z,3.30
2023-05-05T04:42:10.738Z,3.30
2023-05-05T04:44:37.280Z,3.40
2023-05-05T04:47:04.250Z,3.30
2023-05-05T04:49:30.989Z,3.35
2023-05-05T04:51:59.978Z,3.30
2023-05-05T04:54:28.752Z,3.17
2023-05-05T04:56:55.815Z,3.30
2023-05-05T04:59:22.360Z,3.25
2023-05-05T05:01:48.809Z,3.40
2023-05-05T05:04:18.769Z,3.47
2023-05-05T05:06:47.769Z,3.23
2023-05-05T05:09:14.265Z,3.40
2023-05-05T05:11:42.915Z,3.50
2023-05-05T05:14:09.340Z,2.90
2023-05-05T05:16:36.076Z,3.35
2023-05-05T05:19:02.475Z,3.03
2023-05-05T05:21:29.052Z,3.20
2023-05-05T05:23:55.608Z,3.03
2023-05-05T05:26:24.493Z,3.17
2023-05-05T05:28:53.668Z,3.40
2023-05-05T05:31:20.165Z,3.08
2023-05-05T05:33:47.754Z,2.95
2023-05-05T05:36:14.366Z,3.15
2023-05-05T05:38:40.877Z,3.40
2023-05-05T05:41:07.711Z,3.20
2023-05-05T05:43:34.154Z,3.30
2023-05-05T05:46:03.153Z,3.45
2023-05-05T05:48:29.693Z,3.05
2023-05-05T05:50:56.380Z,3.08
2023-05-05T05:53:25.165Z,3.17
2023-05-05T05:55:51.610Z,3.30
2023-05-05T05:58:20.192Z,3.15
2023-05-05T06:00:49.030Z,3.30
2023-05-05T06:03:15.905Z,3.33
2023-05-05T06:05:44.809Z,3.20
2023-05-05T06:08:11.249Z,3.20
2023-05-05T06:10:37.733Z,3.20
2023-05-05T06:13:04.260Z,3.33
2023-05-05T06:15:30.847Z,3.35
2023-05-05T06:17:59.466Z,3.10
2023-05-05T06:20:28.012Z,3.30
2023-05-05T06:22:54.482Z,3.30
2023-05-05T06:25:23.499Z,3.25
2023-05-05T06:27:49.953Z,3.00
2023-05-05T06:30:16.544Z,3.20
2023-05-05T06:32:45.505Z,3.30
2023-05-05T06:35:14.369Z,3.33
2023-05-05T06:37:40.989Z,3.20
2023-05-05T06:40:08.086Z,3.00
2023-05-05T06:42:34.706Z,3.15
2023-05-05T06:45:01.573Z,3.05
2023-05-05T06:47:28.235Z,3.00
2023-05-05T06:49:54.680Z,3.00
2023-05-05T06:52:22.295Z,3.10
2023-05-05T06:54:48.823Z,3.10
2023-05-05T06:57:15.350Z,3.28
2023-05-05T06:59:44.151Z,3.10
2023-05-05T07:02:13.462Z,3.30
2023-05-05T07:04:42.281Z,3.30
2023-05-05T07:07:08.735Z,2.93
2023-05-05T07:09:35.191Z,2.70
2023-05-05T07:12:02.058Z,3.27
2023-05-05T07:14:28.481Z,3.25
2023-05-05T07:16:55.039Z,3.10
2023-05-05T07:19:23.948Z,2.92
2023-05-05T07:21:52.782Z,2.90
2023-05-05T07:24:19.182Z,3.13
2023-05-05T07:26:46.248Z,3.28
2023-05-05T07:29:12.770Z,3.20
2023-05-05T07:31:39.296Z,3.17
2023-05-05T07:34:05.742Z,3.00
2023-05-05T07:36:32.952Z,2.97
2023-05-05T07:39:01.779Z,3.03
2023-05-05T07:41:30.801Z,3.30
2023-05-05T07:43:57.247Z,3.20
2023-05-05T07:46:23.817Z,3.10
2023-05-05T07:48:52.623Z,3.20
2023-05-05T07:51:19.193Z,3.00
2023-05-05T07:53:46.010Z,2.90
2023-05-05T07:56:14.818Z,3.03
2023-05-05T07:58:42.263Z,3.05
2023-05-05T08:01:11.152Z,3.10
2023-05-05T08:03:37.883Z,2.90
2023-05-05T08:06:09.525Z,3.13
2023-05-05T08:08:35.994Z,3.10
2023-05-05T08:11:02.717Z,2.88
2023-05-05T08:13:30.236Z,2.88
2023-05-05T08:15:56.835Z,2.90
2023-05-05T08:18:24.599Z,3.05
2023-05-05T08:20:53.488Z,3.10
2023-05-05T08:23:20.006Z,3.00
2023-05-05T08:25:46.442Z,3.05
2023-05-05T08:28:15.323Z,2.80
2023-05-05T08:30:42.800Z,3.10
2023-05-05T08:33:09.288Z,2.90
2023-05-05T08:35:35.716Z,2.85
2023-05-05T08:38:02.450Z,3.10
2023-05-05T08:40:29.785Z,2.90
2023-05-05T08:42:56.305Z,2.85
2023-05-05T08:45:22.682Z,3.22
2023-05-05T08:47:49.374Z,3.10
2023-05-05T08:50:16.052Z,3.10
2023-05-05T08:52:45.575Z,2.83
2023-05-05T08:55:25.719Z,2.90
2023-05-05T08:57:58.773Z,2.70
2023-05-05T09:00:27.172Z,2.90
2023-05-05T09:02:54.661Z,3.10
2023-05-05T09:05:21.208Z,2.70
2023-05-05T09:07:47.782Z,2.95
2023-05-05T09:10:14.425Z,3.00
2023-05-05T09:12:41.094Z,2.70
2023-05-05T09:15:11.641Z,2.97
2023-05-05T09:17:41.536Z,3.00
2023-05-05T09:20:08.743Z,2.70
2023-05-05T09:22:36.280Z,2.75
2023-05-05T09:25:03.288Z,2.88
2023-05-05T09:27:32.225Z,2.70
2023-05-05T09:29:58.714Z,2.60
2023-05-05T09:32:29.926Z,2.65
2023-05-05T09:35:00.158Z,2.75
2023-05-05T09:37:30.405Z,2.70
2023-05-05T09:40:01.249Z,2.80
2023-05-05T09:42:27.811Z,2.80
2023-05-05T09:44:59.102Z,2.90
2023-05-05T09:47:38.452Z,2.70
2023-05-05T09:50:07.565Z,2.88
2023-05-05T09:52:34.363Z,2.70
2023-05-05T09:55:00.882Z,2.60
2023-05-05T09:57:33.364Z,2.80
2023-05-05T10:00:00.491Z,2.83
2023-05-05T10:02:37.808Z,3.25
2023-05-05T10:05:24.622Z,2.60
2023-05-05T10:07:52.154Z,2.60
2023-05-05T10:10:19.268Z,2.63
2023-05-05T10:12:49.669Z,2.70
2023-05-05T10:15:16.315Z,3.00
2023-05-05T10:18:05.328Z,2.70
2023-05-05T10:20:33.695Z,2.80
2023-05-05T10:23:00.307Z,2.73
2023-05-05T10:25:29.914Z,2.80
2023-05-05T10:27:57.589Z,2.60
2023-05-05T10:30:26.425Z,2.72
2023-05-05T10:33:32.016Z,2.83
2023-05-05T10:36:01.275Z,2.70
2023-05-05T10:38:28.918Z,2.60
2023-05-05T10:40:57.764Z,2.67
2023-05-05T10:43:24.331Z,2.70
2023-05-05T10:45:51.139Z,2.80
2023-05-05T10:48:19.175Z,2.80
2023-05-05T10:50:51.199Z,2.80
2023-05-05T10:53:24.165Z,2.60
2023-05-05T10:56:09.070Z,2.60
2023-05-05T10:58:47.073Z,2.58
2023-05-05T11:01:31.188Z,2.60
2023-05-05T11:04:18.845Z,2.60
2023-05-05T11:07:09.812Z,2.50
2023-05-05T11:09:53.655Z,2.65
2023-05-05T11:12:20.106Z,2.70
2023-05-05T11:14:49.099Z,2.60
2023-05-05T11:17:54.352Z,2.60
2023-05-05T11:20:36.340Z,2.60
2023-05-05T11:23:02.836Z,2.60
2023-05-05T11:25:40.924Z,2.40
2023-05-05T11:28:08.304Z,2.40
2023-05-05T11:30:37.707Z,2.60
2023-05-05T11:33:23.138Z,2.80
2023-05-05T11:35:59.017Z,2.50
2023-05-05T11:38:44.445Z,2.58
2023-05-05T11:41:29.104Z,2.60
2023-05-05T11:44:11.447Z,2.80
2023-05-05T11:46:39.633Z,2.57
2023-05-05T11:49:09.467Z,2.40
2023-05-05T11:51:35.984Z,2.50
2023-05-05T11:54:02.445Z,2.70
2023-05-05T11:56:28.904Z,2.60
2023-05-05T11:59:07.684Z,2.60
2023-05-05T12:01:36.514Z,2.60
2023-05-05T12:04:03.502Z,2.70
2023-05-05T12:06:32.158Z,2.60
2023-05-05T12:08:58.699Z,2.70
2023-05-05T12:11:30.017Z,2.40
2023-05-05T12:14:11.897Z,2.72
2023-05-05T12:16:38.562Z,2.63
2023-05-05T12:19:08.455Z,2.80
2023-05-05T12:21:35.070Z,2.50
2023-05-05T12:24:01.748Z,2.60
2023-05-05T12:26:29.013Z,2.60
2023-05-05T12:28:58.013Z,2.50
2023-05-05T12:31:40.461Z,2.70
2023-05-05T12:34:07.912Z,2.78
2023-05-05T12:36:37.083Z,2.53
2023-05-05T12:39:05.052Z,2.80
2023-05-05T12:41:34.777Z,2.80
2023-05-05T12:44:04.095Z,2.50
2023-05-05T12:46:31.915Z,2.67
2023-05-05T12:49:01.682Z,2.70
2023-05-05T12:51:28.217Z,2.80
2023-05-05T12:54:03.753Z,2.60
2023-05-05T12:56:30.455Z,2.60
2023-05-05T12:58:59.444Z,2.70
2023-05-05T13:01:25.980Z,2.60
2023-05-05T13:04:05.537Z,2.60
2023-05-05T13:06:34.409Z,2.63
2023-05-05T13:09:00.922Z,2.55
2023-05-05T13:11:27.410Z,2.58
2023-05-05T13:13:56.025Z,2.60
2023-05-05T13:16:22.672Z,2.60
2023-05-05T13:18:49.525Z,2.60
2023-05-05T13:21:16.693Z,2.70
2023-05-05T13:23:44.310Z,2.43
2023-05-05T13:26:11.450Z,2.67
2023-05-05T13:28:38.072Z,2.30
2023-05-05T13:31:04.701Z,2.67
2023-05-05T13:33:33.095Z,2.65
2023-05-05T13:35:59.523Z,2.63
2023-05-05T13:38:26.161Z,2.50
2023-05-05T13:40:55.840Z,2.78
2023-05-05T13:43:25.012Z,2.63
2023-05-05T13:45:51.421Z,2.53
2023-05-05T13:48:20.373Z,2.70
2023-05-05T13:50:47.373Z,2.63
2023-05-05T13:53:16.133Z,2.40
2023-05-05T13:55:43.269Z,2.35
2023-05-05T13:58:09.802Z,2.60
2023-05-05T14:00:36.245Z,2.55
2023-05-05T14:03:02.672Z,2.60
2023-05-05T14:05:29.165Z,2.30
2023-05-05T14:07:55.956Z,2.60
2023-05-05T14:10:22.592Z,2.50
2023-05-05T14:12:49.164Z,2.30
2023-05-05T14:15:15.630Z,2.70
2023-05-05T14:17:42.154Z,2.60
2023-05-05T14:20:08.819Z,2.57
2023-05-05T14:22:37.587Z,2.50
2023-05-05T14:25:04.724Z,2.30
2023-05-05T14:27:31.579Z,2.40
2023-05-05T14:30:00.431Z,2.50
2023-05-05T14:32:26.890Z,2.28
2023-05-05T14:34:55.262Z,2.67
2023-05-05T14:37:21.907Z,2.40
2023-05-05T14:39:48.477Z,2.50
2023-05-05T14:42:17.388Z,2.38
2023-05-05T14:44:43.817Z,2.40
2023-05-05T14:47:10.271Z,2.47
2023-05-05T14:49:39.100Z,2.60
2023-05-05T14:52:05.676Z,2.60
2023-05-05T14:54:32.241Z,2.60
2023-05-05T14:56:58.696Z,2.50
2023-05-05T14:59:27.528Z,2.60
2023-05-05T15:01:54.483Z,2.50
2023-05-05T15:04:21.065Z,2.70
2023-05-05T15:06:47.491Z,2.38
2023-05-05T15:09:13.978Z,2.50
2023-05-05T15:11:45.350Z,2.60
2023-05-05T15:14:15.037Z,2.50
2023-05-05T15:16:41.517Z,2.50
2023-05-05T15:19:10.471Z,2.37
2023-05-05T15:21:36.972Z,2.58
2023-05-05T15:24:04.951Z,2.53
2023-05-05T15:26:31.952Z,2.50
2023-05-05T15:28:58.432Z,2.50
2023-05-05T15:31:25.047Z,2.20
2023-05-05T15:33:53.949Z,2.50
2023-05-05T15:36:22.674Z,2.47
2023-05-05T15:38:49.366Z,2.43
2023-05-05T15:41:15.832Z,2.47
2023-05-05T15:43:42.925Z,2.50
2023-05-05T15:46:09.368Z,2.50
2023-05-05T15:48:37.899Z,2.33
2023-05-05T15:51:04.446Z,2.45
2023-05-05T15:53:31.025Z,3.30
2023-05-05T15:55:57.565Z,2.35
2023-05-05T15:58:24.110Z,2.60
2023-05-05T16:00:52.658Z,2.70
2023-05-05T16:03:21.582Z,2.50
2023-05-05T16:05:50.653Z,2.33
2023-05-05T16:08:17.129Z,2.28
2023-05-05T16:10:43.680Z,3.85
2023-05-05T16:13:10.293Z,3.85
2023-05-05T16:15:36.804Z,4.72
2023-05-05T16:18:03.364Z,5.55
2023-05-05T16:20:30.164Z,6.20
2023-05-05T16:22:56.759Z,5.97
2023-05-05T16:25:23.651Z,7.53
2023-05-05T16:27:50.263Z,5.10
2023-05-05T16:30:16.784Z,4.93
2023-05-05T16:32:43.164Z,4.28
2023-05-05T16:35:11.933Z,4.68
2023-05-05T16:37:38.605Z,4.70
2023-05-05T16:40:06.023Z,5.72
2023-05-05T16:42:32.542Z,4.68
2023-05-05T16:44:58.991Z,5.25
2023-05-05T16:47:25.700Z,5.90
2023-05-05T16:49:52.617Z,10.82
2023-05-05T16:52:19.128Z,10.30
2023-05-05T16:54:45.610Z,8.10
2023-05-05T16:57:12.856Z,7.40
2023-05-05T16:59:41.813Z,7.32
2023-05-05T17:02:08.347Z,7.43
2023-05-05T17:04:37.773Z,27.20
2023-05-05T17:07:04.414Z,41.13
2023-05-05T17:09:33.365Z,31.00
2023-05-05T17:11:59.925Z,31.60
2023-05-05T17:14:28.853Z,33.00
2023-05-05T17:16:55.457Z,31.50
2023-05-05T17:19:21.951Z,32.33
2023-05-05T17:21:50.913Z,32.22
2023-05-05T17:24:17.313Z,30.83
2023-05-05T17:26:44.267Z,32.10
2023-05-05T17:29:12.898Z,28.77
2023-05-05T17:31:42.115Z,27.33
2023-05-05T17:34:11.752Z,25.88
2023-05-05T17:36:38.481Z,27.85
2023-05-05T17:39:05.862Z,28.33
2023-05-05T17:41:34.558Z,27.20
2023-05-05T17:44:03.548Z,24.20
2023-05-05T17:46:30.336Z,24.83
2023-05-05T17:48:56.916Z,24.25
2023-05-05T17:51:23.567Z,26.23
2023-05-05T17:53:52.725Z,26.20
2023-05-05T17:56:19.398Z,23.95
2023-05-05T17:58:45.889Z,26.17
2023-05-05T18:01:19.862Z,24.20
2023-05-05T18:03:46.644Z,24.42
2023-05-05T18:06:16.114Z,18.37
2023-05-05T18:08:42.727Z,21.33
2023-05-05T18:11:09.574Z,20.10
2023-05-05T18:13:38.430Z,21.00
2023-05-05T18:16:05.128Z,19.48
2023-05-05T18:18:34.113Z,19.13
2023-05-05T18:21:02.943Z,19.48
2023-05-05T18:23:29.505Z,16.80
2023-05-05T18:25:55.885Z,17.23
2023-05-05T18:28:24.857Z,17.40
2023-05-05T18:30:53.704Z,18.27
2023-05-05T18:33:22.501Z,17.38
2023-05-05T18:35:49.051Z,17.48
2023-05-05T18:38:17.892Z,15.23
2023-05-05T18:40:45.373Z,15.73
2023-05-05T18:43:11.905Z,16.88
2023-05-05T18:45:40.822Z,17.53
2023-05-05T18:48:07.433Z,16.08
2023-05-05T18:50:33.943Z,15.90
2023-05-05T18:53:02.506Z,15.40
2023-05-05T18:55:28.918Z,13.95
2023-05-05T18:57:55.368Z,18.75
2023-05-05T19:00:21.981Z,14.88
2023-05-05T19:02:48.530Z,17.45
2023-05-05T19:05:15.188Z,17.05
2023-05-05T19:07:41.772Z,18.67
2023-05-05T19:10:08.563Z,18.08
2023-05-05T19:12:35.156Z,17.60
2023-05-05T19:15:04.083Z,18.02
2023-05-05T19:17:33.030Z,15.80
2023-05-05T19:19:59.595Z,16.52
2023-05-05T19:22:26.119Z,17.02
2023-05-05T19:24:52.989Z,17.70
2023-05-05T19:27:19.482Z,17.40
2023-05-05T19:29:49.204Z,16.87
2023-05-05T19:32:15.806Z,16.83
2023-05-05T19:34:42.942Z,16.20
2023-05-05T19:37:09.542Z,16.83
2023-05-05T19:39:36.147Z,14.77
2023-05-05T19:42:02.624Z,16.33
2023-05-05T19:44:31.794Z,15.17
2023-05-05T19:46:58.283Z,16.17
2023-05-05T19:49:26.853Z,16.97
2023-05-05T19:51:54.442Z,16.60
2023-05-05T19:54:21.314Z,16.30
2023-05-05T19:56:50.262Z,12.83
2023-05-05T19:59:16.779Z,14.95
2023-05-05T20:01:43.298Z,13.77
2023-05-05T20:04:09.954Z,13.75
2023-05-05T20:06:37.395Z,15.05
2023-05-05T20:09:06.785Z,14.23
2023-05-05T20:11:35.594Z,14.38
2023-05-05T20:14:02.044Z,14.13
2023-05-05T20:16:28.488Z,13.23
2023-05-05T20:18:55.115Z,12.45
2023-05-05T20:21:21.696Z,13.88
2023-05-05T20:23:48.230Z,15.73
2023-05-05T20:26:14.849Z,13.73
2023-05-05T20:28:44.224Z,15.65
2023-05-05T20:31:12.153Z,14.77
2023-05-05T20:33:38.611Z,12.47
2023-05-05T20:36:07.480Z,15.13
2023-05-05T20:38:36.192Z,14.40
2023-05-05T20:41:02.637Z,12.07
2023-05-05T20:43:31.360Z,14.20
2023-05-05T20:45:57.848Z,12.15
2023-05-05T20:48:26.833Z,13.07
2023-05-05T20:50:55.687Z,14.90
2023-05-05T20:53:24.280Z,13.30
2023-05-05T20:55:50.754Z,12.98
2023-05-05T20:58:19.561Z,15.18
2023-05-05T21:00:48.526Z,13.50
2023-05-05T21:03:17.453Z,12.63
2023-05-05T21:05:44.705Z,11.40
2023-05-05T21:08:11.138Z,11.63
2023-05-05T21:10:39.959Z,11.70
2023-05-05T21:13:06.499Z,12.13
2023-05-05T21:15:36.898Z,11.30
2023-05-05T21:18:06.183Z,11.73
2023-05-05T21:20:32.841Z,11.95
2023-05-05T21:22:59.391Z,13.23
2023-05-05T21:25:26.847Z,12.95
2023-05-05T21:27:53.317Z,13.85
2023-05-05T21:30:19.766Z,12.65
2023-05-05T21:32:46.452Z,11.40
2023-05-05T21:35:12.972Z,12.15
2023-05-05T21:37:39.667Z,11.65
2023-05-05T21:40:09.326Z,10.73
2023-05-05T21:42:40.886Z,13.43
2023-05-05T21:45:07.735Z,10.57
2023-05-05T21:47:34.245Z,11.98
2023-05-05T21:50:03.122Z,11.30
2023-05-05T21:52:29.566Z,11.40
2023-05-05T21:54:56.124Z,10.32
2023-05-05T21:57:22.563Z,10.43
2023-05-05T21:59:49.030Z,10.80
2023-05-05T22:02:18.002Z,10.65
2023-05-05T22:04:48.514Z,11.33
2023-05-05T22:07:17.393Z,11.10
2023-05-05T22:09:46.219Z,11.95
2023-05-05T22:12:15.074Z,11.00
2023-05-05T22:14:43.944Z,10.33
2023-05-05T22:17:10.787Z,12.95
2023-05-05T22:19:37.219Z,11.27
2023-05-05T22:22:03.675Z,11.10
2023-05-05T22:24:32.625Z,11.07
2023-05-05T22:26:59.496Z,11.10
2023-05-05T22:29:29.113Z,10.77
2023-05-05T22:31:55.839Z,12.38
2023-05-05T22:34:24.696Z,12.73
2023-05-05T22:36:51.104Z,12.27
2023-05-05T22:39:18.611Z,14.17
2023-05-05T22:41:45.108Z,11.30
2023-05-05T22:44:11.610Z,10.90
2023-05-05T22:46:43.861Z,10.67
2023-05-05T22:49:10.322Z,10.75
2023-05-05T22:51:41.655Z,11.30
2023-05-05T22:54:08.148Z,10.90
2023-05-05T22:56:37.492Z,11.20
2023-05-05T22:59:04.048Z,10.73
2023-05-05T23:01:33.060Z,12.70
2023-05-05T23:03:59.653Z,11.10
2023-05-05T23:06:26.225Z,10.53
2023-05-05T23:08:55.029Z,11.40
2023-05-05T23:11:26.351Z,10.77
2023-05-05T23:13:53.449Z,10.38
2023-05-05T23:16:19.972Z,11.75
2023-05-05T23:18:46.397Z,11.00
2023-05-05T23:21:12.982Z,11.43
2023-05-05T23:23:39.789Z,11.10
2023-05-05T23:26:06.622Z,10.50
2023-05-05T23:28:33.118Z,11.05
2023-05-05T23:31:02.065Z,11.30
2023-05-05T23:33:30.947Z,11.00
2023-05-05T23:35:57.362Z,11.63
2023-05-05T23:38:23.924Z,11.32
2023-05-05T23:40:52.752Z,10.38
2023-05-05T23:43:19.169Z,11.27
2023-05-05T23:45:48.006Z,10.95
2023-05-05T23:48:17.404Z,11.50
2023-05-05T23:50:46.521Z,10.85
2023-05-05T23:53:15.302Z,11.35
2023-05-05T23:55:41.803Z,11.10
2023-05-05T23:58:10.790Z,11.35
